Time;durP1;ratioP1;P1;durP2;ratioP2;P2;SDS_P1;SDS_P2;PMS_P1;PMS_P2;Temp;Humidity;BMP_temperature;BMP_pressure;BME280_temperature;BME280_humidity;BME280_pressure;Samples;Min_cycle;Max_cycle;Signal;HPM_P1;HPM_P2
2022/06/15 00:00:53;;;;;;;2.65;1.60;;;;;;;;;;5031603;28;20114;-54
2022/06/15 00:03:19;;;;;;;3.38;1.58;;;;;;;;;;5030914;28;20416;-53
2022/06/15 00:05:45;;;;;;;4.28;1.88;;;;;;;;;;5031347;28;20096;-53
2022/06/15 00:08:12;;;;;;;6.38;2.00;;;;;;;;;;5034048;28;20505;-54
2022/06/15 00:10:39;;;;;;;4.85;1.60;;;;;;;;;;5030937;28;20036;-54
2022/06/15 00:13:05;;;;;;;3.58;1.88;;;;;;;;;;5031503;28;20029;-53
2022/06/15 00:15:31;;;;;;;2.55;1.63;;;;;;;;;;5031789;28;20029;-54
2022/06/15 00:17:57;;;;;;;3.03;1.90;;;;;;;;;;5033423;28;20381;-54
2022/06/15 00:20:23;;;;;;;3.92;1.45;;;;;;;;;;5031409;28;20069;-53
2022/06/15 00:22:49;;;;;;;4.32;2.00;;;;;;;;;;5033392;28;20029;-53
2022/06/15 00:25:15;;;;;;;5.53;1.85;;;;;;;;;;5030905;28;20024;-52
2022/06/15 00:27:41;;;;;;;4.22;1.90;;;;;;;;;;5033040;28;20064;-52
2022/06/15 00:30:07;;;;;;;5.68;1.90;;;;;;;;;;5033227;28;20033;-54
2022/06/15 00:32:33;;;;;;;7.43;2.08;;;;;;;;;;5031360;28;20430;-53
2022/06/15 00:34:59;;;;;;;5.32;1.90;;;;;;;;;;5032660;28;20029;-55
2022/06/15 00:37:25;;;;;;;2.65;1.77;;;;;;;;;;5032507;28;20034;-53
2022/06/15 00:39:51;;;;;;;2.40;1.38;;;;;;;;;;5031003;28;20038;-54
2022/06/15 00:42:19;;;;;;;2.97;1.60;;;;;;;;;;5032412;28;20025;-54
2022/06/15 00:44:45;;;;;;;4.00;1.77;;;;;;;;;;5030294;28;20113;-54
2022/06/15 00:47:22;;;;;;;3.15;1.75;;;;;;;;;;5033035;28;20037;-55
2022/06/15 00:49:51;;;;;;;5.82;1.90;;;;;;;;;;5030975;28;20065;-51
2022/06/15 00:52:19;;;;;;;5.72;1.83;;;;;;;;;;5029314;28;20029;-54
2022/06/15 00:54:48;;;;;;;3.65;1.80;;;;;;;;;;5031260;28;20045;-53
2022/06/15 00:57:14;;;;;;;2.95;1.65;;;;;;;;;;5032669;28;20048;-54
2022/06/15 00:59:54;;;;;;;3.67;1.50;;;;;;;;;;5031741;28;20109;-54
2022/06/15 01:02:20;;;;;;;3.92;1.70;;;;;;;;;;5029934;28;20022;-55
2022/06/15 01:04:48;;;;;;;3.20;1.70;;;;;;;;;;5030879;28;20404;-52
2022/06/15 01:07:25;;;;;;;3.42;1.88;;;;;;;;;;5031812;28;20049;-48
2022/06/15 01:10:04;;;;;;;4.18;2.05;;;;;;;;;;5030953;28;20033;-49
2022/06/15 01:12:47;;;;;;;6.10;2.15;;;;;;;;;;5031540;28;20041;-50
2022/06/15 01:15:19;;;;;;;3.45;1.98;;;;;;;;;;5029237;28;20025;-52
2022/06/15 01:17:45;;;;;;;4.13;2.10;;;;;;;;;;5030606;28;20029;-50
2022/06/15 01:20:15;;;;;;;4.93;1.90;;;;;;;;;;5030298;28;20029;-48
2022/06/15 01:23:00;;;;;;;2.55;1.88;;;;;;;;;;5031329;28;20025;-49
2022/06/15 01:25:33;;;;;;;4.28;2.00;;;;;;;;;;5031834;28;20060;-53
2022/06/15 01:28:18;;;;;;;3.83;1.92;;;;;;;;;;5032439;28;20493;-50
2022/06/15 01:30:59;;;;;;;4.80;2.15;;;;;;;;;;5029507;28;20099;-49
2022/06/15 01:33:36;;;;;;;3.28;1.90;;;;;;;;;;5029470;28;20033;-52
2022/06/15 01:36:08;;;;;;;4.25;1.80;;;;;;;;;;5023210;28;20112;-50
2022/06/15 01:38:38;;;;;;;3.50;1.92;;;;;;;;;;5030907;28;20037;-51
2022/06/15 01:41:36;;;;;;;2.90;1.88;;;;;;;;;;5030720;28;20060;-52
2022/06/15 01:44:08;;;;;;;4.72;1.83;;;;;;;;;;5017032;28;20048;-52
2022/06/15 01:46:35;;;;;;;3.65;1.80;;;;;;;;;;5029867;28;20064;-50
2022/06/15 01:49:02;;;;;;;8.20;2.17;;;;;;;;;;5030966;28;20040;-51
2022/06/15 01:51:33;;;;;;;3.05;1.95;;;;;;;;;;5036451;28;20075;-54
2022/06/15 01:54:26;;;;;;;4.18;2.00;;;;;;;;;;5031131;28;20045;-48
2022/06/15 01:56:53;;;;;;;4.82;1.83;;;;;;;;;;5022155;28;20516;-50
2022/06/15 01:59:30;;;;;;;3.65;2.17;;;;;;;;;;5030139;28;20073;-52
2022/06/15 02:01:56;;;;;;;3.25;1.90;;;;;;;;;;5020193;28;20036;-52
2022/06/15 02:04:29;;;;;;;6.03;2.05;;;;;;;;;;5029795;28;20025;-52
2022/06/15 02:07:05;;;;;;;4.55;2.13;;;;;;;;;;5025808;28;20101;-51
2022/06/15 02:09:39;;;;;;;5.03;2.33;;;;;;;;;;5029861;28;20116;-48
2022/06/15 02:12:07;;;;;;;4.53;2.33;;;;;;;;;;5030336;28;20083;-49
2022/06/15 02:14:41;;;;;;;4.40;2.10;;;;;;;;;;5029842;28;20026;-51
2022/06/15 02:17:33;;;;;;;3.90;2.50;;;;;;;;;;5029747;28;20047;-49
2022/06/15 02:20:08;;;;;;;5.13;2.40;;;;;;;;;;5029036;28;20110;-51
2022/06/15 02:22:36;;;;;;;4.53;2.30;;;;;;;;;;5028359;28;20104;-54
2022/06/15 02:25:04;;;;;;;4.55;2.22;;;;;;;;;;5029141;28;20051;-48
2022/06/15 02:27:31;;;;;;;4.95;2.13;;;;;;;;;;5030181;28;20056;-48
2022/06/15 02:30:00;;;;;;;5.05;2.00;;;;;;;;;;5028901;28;20546;-53
2022/06/15 02:32:26;;;;;;;5.50;2.30;;;;;;;;;;5030093;28;20052;-49
2022/06/15 02:34:52;;;;;;;4.57;2.40;;;;;;;;;;5030153;28;20033;-51
2022/06/15 02:37:18;;;;;;;3.45;2.00;;;;;;;;;;5030182;28;20040;-49
2022/06/15 02:39:44;;;;;;;4.38;2.15;;;;;;;;;;5029447;28;20025;-50
2022/06/15 02:42:25;;;;;;;3.47;2.00;;;;;;;;;;5030485;28;20027;-50
2022/06/15 02:44:53;;;;;;;3.90;2.60;;;;;;;;;;5030160;28;20036;-50
2022/06/15 02:47:19;;;;;;;4.38;2.15;;;;;;;;;;5030280;28;20045;-50
2022/06/15 02:49:50;;;;;;;5.53;2.00;;;;;;;;;;5027956;28;20033;-52
2022/06/15 02:52:17;;;;;;;3.03;2.30;;;;;;;;;;5029533;28;20041;-49
2022/06/15 02:54:46;;;;;;;5.57;2.33;;;;;;;;;;5025831;28;20049;-50
2022/06/15 02:57:13;;;;;;;4.93;2.17;;;;;;;;;;5029056;28;20037;-53
2022/06/15 02:59:40;;;;;;;5.05;2.13;;;;;;;;;;5029301;28;20045;-51
2022/06/15 03:02:06;;;;;;;3.90;2.25;;;;;;;;;;5029711;28;20025;-51
2022/06/15 03:04:32;;;;;;;4.53;2.03;;;;;;;;;;5029847;28;20021;-52
2022/06/15 03:06:58;;;;;;;3.22;1.80;;;;;;;;;;5030171;28;20113;-49
2022/06/15 03:09:24;;;;;;;3.35;2.10;;;;;;;;;;5029050;28;20021;-50
2022/06/15 03:11:50;;;;;;;4.72;2.00;;;;;;;;;;5030976;28;20022;-51
2022/06/15 03:14:16;;;;;;;3.75;2.22;;;;;;;;;;5028689;28;20034;-48
2022/06/15 03:16:43;;;;;;;3.63;1.92;;;;;;;;;;5029183;28;20025;-49
2022/06/15 03:19:10;;;;;;;3.75;2.22;;;;;;;;;;5026136;28;20112;-48
2022/06/15 03:21:36;;;;;;;3.25;2.33;;;;;;;;;;5029134;28;20033;-52
2022/06/15 03:24:02;;;;;;;4.63;2.40;;;;;;;;;;5027874;28;20025;-51
2022/06/15 03:26:28;;;;;;;2.65;1.75;;;;;;;;;;5029384;28;20096;-51
2022/06/15 03:28:54;;;;;;;3.65;2.28;;;;;;;;;;5027985;28;20033;-49
2022/06/15 03:31:20;;;;;;;5.03;2.38;;;;;;;;;;5028520;28;20044;-49
2022/06/15 03:33:46;;;;;;;3.58;2.10;;;;;;;;;;5026017;28;20087;-52
2022/06/15 03:36:12;;;;;;;6.82;2.53;;;;;;;;;;5030926;28;20037;-50
2022/06/15 03:38:38;;;;;;;4.70;2.25;;;;;;;;;;5029675;28;20485;-52
2022/06/15 03:41:04;;;;;;;9.23;2.60;;;;;;;;;;5030200;28;20042;-50
2022/06/15 03:43:30;;;;;;;4.80;2.53;;;;;;;;;;5029621;28;20076;-53
2022/06/15 03:45:56;;;;;;;5.07;2.95;;;;;;;;;;5027966;28;20029;-51
2022/06/15 03:48:22;;;;;;;7.05;2.95;;;;;;;;;;5026855;28;20025;-52
2022/06/15 03:50:48;;;;;;;3.60;2.40;;;;;;;;;;5028153;28;20033;-53
2022/06/15 03:53:14;;;;;;;5.55;2.50;;;;;;;;;;5029329;28;20512;-48
2022/06/15 03:55:41;;;;;;;5.38;2.50;;;;;;;;;;5029398;28;20505;-51
2022/06/15 03:58:07;;;;;;;3.88;2.13;;;;;;;;;;5029380;28;20045;-51
2022/06/15 04:00:34;;;;;;;5.18;2.20;;;;;;;;;;5027152;28;20477;-51
2022/06/15 04:03:00;;;;;;;3.97;2.38;;;;;;;;;;5025788;28;20025;-53
2022/06/15 04:05:28;;;;;;;4.65;2.05;;;;;;;;;;5033507;28;20025;-53
2022/06/15 04:10:39;;;;;;;3.75;2.03;;;;;;;;;;5027198;28;20041;-51
2022/06/15 04:13:05;;;;;;;5.88;2.40;;;;;;;;;;5029251;28;20029;-53
2022/06/15 04:15:32;;;;;;;4.45;2.13;;;;;;;;;;5026402;28;20030;-53
2022/06/15 04:17:57;;;;;;;3.38;2.20;;;;;;;;;;5026773;28;20029;-52
2022/06/15 04:20:35;;;;;;;9.27;2.42;;;;;;;;;;5027990;28;20022;-51
2022/06/15 04:23:08;;;;;;;3.03;1.88;;;;;;;;;;5027304;28;20064;-50
2022/06/15 04:25:36;;;;;;;3.30;2.00;;;;;;;;;;5028447;28;20128;-53
2022/06/15 04:28:03;;;;;;;3.22;1.98;;;;;;;;;;5031319;28;20041;-53
2022/06/15 04:30:30;;;;;;;5.57;3.00;;;;;;;;;;5030363;28;20094;-50
2022/06/15 04:32:56;;;;;;;2.53;2.15;;;;;;;;;;5034193;28;20055;-50
2022/06/15 04:35:22;;;;;;;6.55;2.22;;;;;;;;;;5035789;28;20029;-50
2022/06/15 04:37:48;;;;;;;4.63;1.95;;;;;;;;;;5032364;28;20029;-53
2022/06/15 04:40:14;;;;;;;5.10;2.22;;;;;;;;;;5029255;28;20025;-51
2022/06/15 04:42:40;;;;;;;4.93;2.33;;;;;;;;;;5031529;28;20021;-51
2022/06/15 04:45:07;;;;;;;4.53;2.65;;;;;;;;;;5036780;28;20014;-52
2022/06/15 04:47:33;;;;;;;4.53;2.60;;;;;;;;;;5028439;28;20393;-51
2022/06/15 04:49:59;;;;;;;6.53;2.47;;;;;;;;;;5031678;28;20030;-53
2022/06/15 04:52:25;;;;;;;3.05;2.53;;;;;;;;;;5032369;28;20477;-50
2022/06/15 04:54:51;;;;;;;5.63;2.40;;;;;;;;;;5031159;28;20312;-52
2022/06/15 04:57:17;;;;;;;8.30;2.30;;;;;;;;;;5029973;28;20056;-50
2022/06/15 04:59:43;;;;;;;6.25;2.20;;;;;;;;;;5032846;28;20033;-51
2022/06/15 05:02:11;;;;;;;8.15;2.78;;;;;;;;;;5027974;28;20083;-51
2022/06/15 05:04:37;;;;;;;3.80;2.50;;;;;;;;;;5035198;28;20029;-52
2022/06/15 05:07:03;;;;;;;5.35;2.40;;;;;;;;;;5029195;28;20056;-49
2022/06/15 05:09:29;;;;;;;5.22;2.70;;;;;;;;;;5030892;28;20031;-53
2022/06/15 05:11:55;;;;;;;4.00;2.22;;;;;;;;;;5036051;28;20040;-53
2022/06/15 05:14:21;;;;;;;3.60;2.67;;;;;;;;;;5034411;28;20037;-54
2022/06/15 05:16:47;;;;;;;3.78;2.33;;;;;;;;;;5031231;28;20029;-53
2022/06/15 05:19:14;;;;;;;3.85;2.65;;;;;;;;;;5030256;28;20066;-51
2022/06/15 05:21:40;;;;;;;7.28;2.97;;;;;;;;;;5028352;28;20033;-54
2022/06/15 05:24:07;;;;;;;6.82;2.47;;;;;;;;;;5028954;28;20021;-52
2022/06/15 05:26:33;;;;;;;6.75;2.72;;;;;;;;;;5029942;28;20541;-54
2022/06/15 05:28:59;;;;;;;4.82;2.60;;;;;;;;;;5029872;28;20033;-52
2022/06/15 05:31:25;;;;;;;5.38;2.50;;;;;;;;;;5030848;28;20477;-51
2022/06/15 05:33:56;;;;;;;6.30;2.58;;;;;;;;;;5029511;28;20061;-53
2022/06/15 05:36:24;;;;;;;4.22;2.50;;;;;;;;;;5022853;28;20112;-53
2022/06/15 05:38:50;;;;;;;5.78;2.60;;;;;;;;;;5029446;28;20481;-54
2022/06/15 05:41:16;;;;;;;5.05;2.50;;;;;;;;;;5029905;28;20071;-49
2022/06/15 05:43:49;;;;;;;9.18;2.72;;;;;;;;;;5028883;28;20037;-50
2022/06/15 05:46:27;;;;;;;8.30;2.95;;;;;;;;;;5029426;28;20363;-50
2022/06/15 05:48:56;;;;;;;3.53;2.20;;;;;;;;;;5027398;28;20025;-51
2022/06/15 05:51:22;;;;;;;5.82;2.30;;;;;;;;;;5025936;28;20043;-52
2022/06/15 05:53:48;;;;;;;2.80;1.95;;;;;;;;;;5030477;28;20358;-52
2022/06/15 05:56:14;;;;;;;5.00;2.22;;;;;;;;;;5028297;28;20048;-51
2022/06/15 05:58:41;;;;;;;4.80;2.13;;;;;;;;;;5027971;28;20029;-51
2022/06/15 06:01:07;;;;;;;7.15;2.10;;;;;;;;;;5030510;28;20083;-51
2022/06/15 06:03:34;;;;;;;3.72;2.03;;;;;;;;;;5027005;28;20033;-52
2022/06/15 06:06:00;;;;;;;4.53;1.75;;;;;;;;;;5029460;28;20032;-53
2022/06/15 06:08:26;;;;;;;5.43;1.70;;;;;;;;;;5025734;28;20022;-51
2022/06/15 06:10:51;;;;;;;4.07;1.50;;;;;;;;;;5026291;28;20042;-52
2022/06/15 06:13:17;;;;;;;5.85;1.40;;;;;;;;;;5028510;28;20079;-49
2022/06/15 06:15:43;;;;;;;4.75;1.60;;;;;;;;;;5028774;28;20025;-49
2022/06/15 06:18:09;;;;;;;4.25;1.17;;;;;;;;;;5034621;28;20107;-54
2022/06/15 06:20:35;;;;;;;3.47;1.50;;;;;;;;;;5028122;28;20025;-51
2022/06/15 06:23:01;;;;;;;3.15;1.05;;;;;;;;;;5026097;28;20017;-54
2022/06/15 06:25:28;;;;;;;4.22;1.42;;;;;;;;;;5023836;28;20029;-53
2022/06/15 06:27:54;;;;;;;3.00;1.20;;;;;;;;;;5016738;28;20097;-53
2022/06/15 06:30:21;;;;;;;3.33;1.08;;;;;;;;;;5015835;28;20084;-53
2022/06/15 06:32:47;;;;;;;5.97;1.40;;;;;;;;;;5014894;28;20041;-51
2022/06/15 06:35:13;;;;;;;3.78;1.23;;;;;;;;;;5026917;28;20033;-50
2022/06/15 06:37:39;;;;;;;3.13;1.20;;;;;;;;;;5024640;28;20033;-53
2022/06/15 06:40:06;;;;;;;4.90;1.23;;;;;;;;;;5027973;28;20083;-51
2022/06/15 06:42:32;;;;;;;2.17;0.95;;;;;;;;;;5023974;28;20053;-50
2022/06/15 06:44:58;;;;;;;2.92;1.17;;;;;;;;;;5016929;28;20052;-54
2022/06/15 06:47:24;;;;;;;4.60;1.00;;;;;;;;;;5027281;28;20104;-52
2022/06/15 06:49:50;;;;;;;5.05;1.35;;;;;;;;;;5028116;28;20465;-51
2022/06/15 06:52:16;;;;;;;2.42;1.00;;;;;;;;;;5027465;28;20404;-50
2022/06/15 06:54:41;;;;;;;3.05;1.58;;;;;;;;;;5028732;28;20049;-50
2022/06/15 06:57:07;;;;;;;4.80;1.58;;;;;;;;;;5028822;28;20389;-54
2022/06/15 06:59:33;;;;;;;3.42;1.02;;;;;;;;;;5028349;28;20039;-54
2022/06/15 07:01:59;;;;;;;3.97;1.35;;;;;;;;;;5029792;28;20108;-51
2022/06/15 07:04:25;;;;;;;4.32;0.93;;;;;;;;;;5031084;28;20028;-52
2022/06/15 07:06:55;;;;;;;5.18;1.40;;;;;;;;;;5028920;28;20026;-54
2022/06/15 07:09:21;;;;;;;3.08;1.30;;;;;;;;;;5027960;28;20107;-52
2022/06/15 07:11:47;;;;;;;3.72;0.90;;;;;;;;;;5027112;28;20037;-52
2022/06/15 07:14:13;;;;;;;4.45;0.98;;;;;;;;;;5031102;28;20370;-53
2022/06/15 07:16:39;;;;;;;2.05;0.82;;;;;;;;;;5029443;28;20495;-52
2022/06/15 07:19:05;;;;;;;3.50;0.98;;;;;;;;;;5029366;28;20043;-54
2022/06/15 07:21:31;;;;;;;1.98;0.80;;;;;;;;;;5029653;28;20413;-51
2022/06/15 07:23:58;;;;;;;3.00;0.95;;;;;;;;;;5029338;28;20022;-53
2022/06/15 07:26:31;;;;;;;1.83;0.57;;;;;;;;;;5030479;28;20021;-54
2022/06/15 07:28:58;;;;;;;7.35;1.20;;;;;;;;;;5028551;28;20030;-53
2022/06/15 07:31:25;;;;;;;3.50;1.23;;;;;;;;;;5029760;28;20030;-50
2022/06/15 07:33:51;;;;;;;3.67;0.60;;;;;;;;;;5031202;28;20029;-50
2022/06/15 07:36:17;;;;;;;1.90;0.63;;;;;;;;;;5030982;28;20440;-50
2022/06/15 07:38:43;;;;;;;1.95;0.70;;;;;;;;;;5034250;28;20032;-51
2022/06/15 07:41:09;;;;;;;3.00;0.70;;;;;;;;;;5029929;28;20025;-51
2022/06/15 07:43:35;;;;;;;4.22;0.75;;;;;;;;;;5029540;28;20021;-54
2022/06/15 07:46:01;;;;;;;2.40;0.70;;;;;;;;;;5029045;28;20048;-55
2022/06/15 07:51:48;;;;;;;2.63;1.00;;;;;;;;;;5026523;28;20284;-51
2022/06/15 07:54:15;;;;;;;2.53;0.57;;;;;;;;;;5000280;28;20142;-53
2022/06/15 07:56:42;;;;;;;2.55;0.75;;;;;;;;;;5018123;28;20442;-53
2022/06/15 07:59:08;;;;;;;2.38;0.55;;;;;;;;;;5023994;28;20494;-51
2022/06/15 08:01:35;;;;;;;4.38;0.80;;;;;;;;;;5024472;28;20036;-55
2022/06/15 08:04:01;;;;;;;3.22;0.80;;;;;;;;;;5023697;28;20021;-53
2022/06/15 08:06:28;;;;;;;5.22;0.90;;;;;;;;;;5032745;28;20030;-51
2022/06/15 08:08:54;;;;;;;3.63;1.15;;;;;;;;;;5021464;28;20029;-53
2022/06/15 08:11:20;;;;;;;3.70;0.90;;;;;;;;;;5030790;28;20041;-53
2022/06/15 08:13:46;;;;;;;3.45;0.75;;;;;;;;;;5028845;28;20037;-55
2022/06/15 08:16:13;;;;;;;4.05;1.00;;;;;;;;;;5035235;28;20053;-54
2022/06/15 08:18:41;;;;;;;3.25;0.85;;;;;;;;;;5023932;28;20029;-53
2022/06/15 08:21:10;;;;;;;2.95;0.90;;;;;;;;;;5031374;28;20025;-53
2022/06/15 08:23:36;;;;;;;4.88;1.20;;;;;;;;;;5029354;28;20454;-52
2022/06/15 08:26:04;;;;;;;3.22;1.00;;;;;;;;;;5024212;28;20524;-53
2022/06/15 08:28:32;;;;;;;5.28;1.25;;;;;;;;;;5026555;28;20022;-53
2022/06/15 08:30:58;;;;;;;4.57;0.90;;;;;;;;;;5041615;28;20049;-53
2022/06/15 08:33:25;;;;;;;2.83;0.93;;;;;;;;;;5030983;28;20025;-53
2022/06/15 08:35:51;;;;;;;3.97;0.60;;;;;;;;;;5035813;28;20485;-51
2022/06/15 08:38:18;;;;;;;3.30;0.93;;;;;;;;;;5030485;28;20033;-54
2022/06/15 08:40:50;;;;;;;4.88;1.02;;;;;;;;;;5029865;28;20025;-53
2022/06/15 08:43:46;;;;;;;5.65;0.93;;;;;;;;;;5027622;28;20028;-53
2022/06/15 08:46:18;;;;;;;3.35;1.00;;;;;;;;;;5008514;28;20048;-54
2022/06/15 08:49:08;;;;;;;3.38;0.85;;;;;;;;;;5022915;28;20501;-53
2022/06/15 08:51:36;;;;;;;5.63;0.93;;;;;;;;;;5030190;28;20045;-54
2022/06/15 08:54:05;;;;;;;10.32;1.00;;;;;;;;;;5028175;28;20124;-52
2022/06/15 08:56:44;;;;;;;2.80;0.90;;;;;;;;;;5033325;28;20382;-53
2022/06/15 08:59:28;;;;;;;3.67;0.88;;;;;;;;;;5029658;28;20140;-54
2022/06/15 09:02:12;;;;;;;4.68;1.23;;;;;;;;;;5034735;28;20524;-54
2022/06/15 09:04:42;;;;;;;3.13;0.82;;;;;;;;;;5027400;28;20156;-55
2022/06/15 09:07:13;;;;;;;2.60;0.85;;;;;;;;;;5026930;28;20025;-51
2022/06/15 09:09:58;;;;;;;6.00;1.00;;;;;;;;;;5021172;28;20045;-53
2022/06/15 09:12:53;;;;;;;5.43;0.80;;;;;;;;;;5021497;28;20030;-54
2022/06/15 09:15:31;;;;;;;8.48;1.20;;;;;;;;;;5028919;28;20071;-54
2022/06/15 09:17:58;;;;;;;3.00;1.10;;;;;;;;;;5028338;28;20410;-54
2022/06/15 09:20:29;;;;;;;4.55;1.10;;;;;;;;;;5025492;28;20025;-54
2022/06/15 09:22:57;;;;;;;3.17;1.17;;;;;;;;;;5026163;28;20462;-53
2022/06/15 09:25:27;;;;;;;3.22;1.05;;;;;;;;;;5029544;28;20037;-54
2022/06/15 09:28:18;;;;;;;3.42;1.00;;;;;;;;;;5030396;28;20477;-54
2022/06/15 09:30:44;;;;;;;5.97;1.15;;;;;;;;;;5018759;28;20373;-54
2022/06/15 09:33:16;;;;;;;4.65;1.10;;;;;;;;;;5032772;28;20057;-52
2022/06/15 09:35:46;;;;;;;2.28;0.77;;;;;;;;;;5030202;28;20037;-53
2022/06/15 09:38:14;;;;;;;5.43;1.33;;;;;;;;;;5027964;28;20120;-54
2022/06/15 09:40:58;;;;;;;3.33;1.45;;;;;;;;;;5028270;28;20033;-54
2022/06/15 09:43:32;;;;;;;3.63;0.95;;;;;;;;;;5028417;28;20025;-54
2022/06/15 09:46:15;;;;;;;3.78;0.98;;;;;;;;;;5024621;28;20026;-54
2022/06/15 09:48:54;;;;;;;7.63;1.10;;;;;;;;;;5022280;28;20081;-54
2022/06/15 09:51:25;;;;;;;4.00;1.23;;;;;;;;;;5026956;28;20033;-55
2022/06/15 09:53:51;;;;;;;4.85;1.13;;;;;;;;;;5029993;28;20055;-53
2022/06/15 09:56:18;;;;;;;5.32;0.95;;;;;;;;;;5023494;28;20477;-53
2022/06/15 09:58:47;;;;;;;3.53;0.95;;;;;;;;;;5018816;28;20038;-52
2022/06/15 10:01:13;;;;;;;4.30;1.05;;;;;;;;;;5026687;28;20040;-53
2022/06/15 10:03:59;;;;;;;4.20;1.10;;;;;;;;;;5028095;28;20040;-52
2022/06/15 10:06:42;;;;;;;2.17;1.08;;;;;;;;;;5020391;28;20397;-51
2022/06/15 10:09:10;;;;;;;3.13;0.82;;;;;;;;;;5025441;28;20479;-52
2022/06/15 10:11:37;;;;;;;6.38;1.05;;;;;;;;;;5027815;28;20436;-53
2022/06/15 10:14:39;;;;;;;5.00;1.20;;;;;;;;;;5025248;28;20143;-52
2022/06/15 10:17:25;;;;;;;6.88;1.20;;;;;;;;;;5006938;28;20048;-51
2022/06/15 10:19:53;;;;;;;3.13;1.05;;;;;;;;;;5022388;28;20047;-53
2022/06/15 10:22:23;;;;;;;5.28;1.10;;;;;;;;;;5020905;28;20105;-50
2022/06/15 10:24:49;;;;;;;5.40;1.20;;;;;;;;;;5020775;28;20604;-51
2022/06/15 10:27:21;;;;;;;3.80;1.52;;;;;;;;;;5022354;28;20021;-53
2022/06/15 10:30:16;;;;;;;2.90;0.85;;;;;;;;;;5038681;28;20504;-51
2022/06/15 10:32:59;;;;;;;2.22;0.93;;;;;;;;;;5024940;28;20096;-54
2022/06/15 10:35:26;;;;;;;4.97;0.85;;;;;;;;;;5029200;28;20551;-53
2022/06/15 10:37:55;;;;;;;4.88;1.30;;;;;;;;;;5029380;28;20462;-51
2022/06/15 10:40:31;;;;;;;5.13;1.10;;;;;;;;;;5034411;28;20028;-51
2022/06/15 10:43:00;;;;;;;4.88;1.10;;;;;;;;;;5033335;28;20545;-53
2022/06/15 10:45:33;;;;;;;6.50;1.17;;;;;;;;;;5026296;28;20520;-51
2022/06/15 10:48:06;;;;;;;8.55;1.10;;;;;;;;;;5025747;28;20052;-50
2022/06/15 10:50:43;;;;;;;4.53;0.80;;;;;;;;;;5021560;28;20096;-52
2022/06/15 10:53:27;;;;;;;4.75;0.90;;;;;;;;;;5020622;28;20079;-52
2022/06/15 11:04:25;;;;;;;4.63;1.00;;;;;;;;;;5028455;28;20047;-54
2022/06/15 11:06:53;;;;;;;4.40;1.20;;;;;;;;;;5029056;28;20064;-52
2022/06/15 11:09:33;;;;;;;4.07;0.95;;;;;;;;;;5029245;28;20022;-50
2022/06/15 11:12:01;;;;;;;2.40;0.70;;;;;;;;;;5025386;28;20036;-54
2022/06/15 11:14:31;;;;;;;2.38;0.93;;;;;;;;;;5031066;28;20393;-52
2022/06/15 11:20:03;;;;;;;3.72;0.80;;;;;;;;;;5026878;28;20055;-51
2022/06/15 11:22:30;;;;;;;4.28;0.85;;;;;;;;;;5034308;28;20565;-50
2022/06/15 11:25:09;;;;;;;6.18;1.40;;;;;;;;;;5030103;28;20037;-54
2022/06/15 11:27:40;;;;;;;1.92;0.90;;;;;;;;;;5028503;28;20029;-52
2022/06/15 11:30:17;;;;;;;2.90;1.00;;;;;;;;;;5029156;28;20022;-51
2022/06/15 11:32:51;;;;;;;4.68;0.75;;;;;;;;;;5028713;28;20884;-51
2022/06/15 11:35:20;;;;;;;1.95;0.68;;;;;;;;;;5040208;28;20025;-52
2022/06/15 11:37:57;;;;;;;3.53;0.88;;;;;;;;;;5028245;28;20128;-53
2022/06/15 11:40:44;;;;;;;6.25;0.98;;;;;;;;;;5031100;28;20532;-51
2022/06/15 11:43:21;;;;;;;2.80;0.85;;;;;;;;;;5024903;28;20017;-50
2022/06/15 11:46:09;;;;;;;5.07;1.20;;;;;;;;;;5031639;28;20033;-53
2022/06/15 11:48:45;;;;;;;5.80;1.45;;;;;;;;;;5032028;28;20498;-55
2022/06/15 11:51:18;;;;;;;7.60;1.15;;;;;;;;;;5032836;28;20044;-52
2022/06/15 11:53:44;;;;;;;;;;;;;;;;;;5032624;28;20041;-55
2022/06/15 11:56:13;;;;;;;2.28;0.93;;;;;;;;;;5032739;28;19960;-55
2022/06/15 11:59:01;;;;;;;3.60;1.10;;;;;;;;;;5027278;28;20043;-55
2022/06/15 12:01:36;;;;;;;2.83;0.73;;;;;;;;;;5030976;28;20072;-53
2022/06/15 12:04:21;;;;;;;1.83;0.90;;;;;;;;;;5032280;28;20033;-56
2022/06/15 12:06:57;;;;;;;2.45;0.90;;;;;;;;;;5034249;28;20025;-54
2022/06/15 12:09:32;;;;;;;1.60;0.80;;;;;;;;;;5025478;28;20150;-53
2022/06/15 12:15:03;;;;;;;4.25;0.85;;;;;;;;;;5035791;28;20059;-56
2022/06/15 12:17:31;;;;;;;3.17;0.80;;;;;;;;;;5029588;28;20044;-55
2022/06/15 12:20:01;;;;;;;2.75;0.75;;;;;;;;;;5027549;28;20034;-56
2022/06/15 12:22:31;;;;;;;2.33;0.77;;;;;;;;;;5032393;28;20476;-56
2022/06/15 12:25:13;;;;;;;7.03;0.90;;;;;;;;;;5028077;28;20079;-56
2022/06/15 12:27:40;;;;;;;4.28;0.82;;;;;;;;;;5026127;28;20176;-55
2022/06/15 12:30:18;;;;;;;4.40;1.05;;;;;;;;;;5027619;28;20025;-56
2022/06/15 12:32:51;;;;;;;3.90;1.30;;;;;;;;;;5029801;28;20034;-57
2022/06/15 12:35:35;;;;;;;4.40;0.80;;;;;;;;;;5033516;28;20026;-57
2022/06/15 12:38:11;;;;;;;4.88;1.10;;;;;;;;;;5029512;28;20144;-56
2022/06/15 12:40:39;;;;;;;3.55;1.00;;;;;;;;;;5027088;28;20036;-56
2022/06/15 12:43:14;;;;;;;3.92;0.82;;;;;;;;;;5024039;28;20774;-57
2022/06/15 12:45:43;;;;;;;4.93;1.08;;;;;;;;;;5028862;28;20037;-55
2022/06/15 12:48:30;;;;;;;3.20;0.85;;;;;;;;;;5028199;28;20037;-55
2022/06/15 12:51:02;;;;;;;4.60;1.23;;;;;;;;;;5017260;28;20055;-54
2022/06/15 12:53:48;;;;;;;5.47;1.15;;;;;;;;;;5030658;28;20037;-55
2022/06/15 12:56:20;;;;;;;3.20;0.85;;;;;;;;;;5031803;28;20041;-54
2022/06/15 12:58:55;;;;;;;1.75;0.57;;;;;;;;;;5026273;28;20500;-55
2022/06/15 13:01:27;;;;;;;6.13;1.23;;;;;;;;;;5033734;28;20033;-56
2022/06/15 13:04:07;;;;;;;3.63;0.90;;;;;;;;;;5027582;28;20124;-56
2022/06/15 13:06:35;;;;;;;6.15;1.27;;;;;;;;;;5029931;28;20820;-56
2022/06/15 13:09:11;;;;;;;2.45;0.80;;;;;;;;;;5031003;28;20021;-54
2022/06/15 13:11:45;;;;;;;3.08;0.70;;;;;;;;;;5033314;28;20060;-55
2022/06/15 13:14:14;;;;;;;1.63;0.60;;;;;;;;;;5035262;28;20123;-57
2022/06/15 13:16:42;;;;;;;4.53;0.85;;;;;;;;;;5029731;28;20052;-53
2022/06/15 13:19:10;;;;;;;8.55;0.88;;;;;;;;;;5033623;28;20034;-52
2022/06/15 13:21:50;;;;;;;6.60;0.82;;;;;;;;;;5039475;28;20032;-53
2022/06/15 13:24:17;;;;;;;3.05;0.52;;;;;;;;;;5039673;28;20037;-54
2022/06/15 13:26:49;;;;;;;2.17;0.80;;;;;;;;;;5040589;28;20029;-53
2022/06/15 13:29:19;;;;;;;2.35;0.80;;;;;;;;;;5032795;28;20390;-53
2022/06/15 13:31:47;;;;;;;3.70;1.23;;;;;;;;;;5031458;28;20535;-53
2022/06/15 13:34:15;;;;;;;3.85;0.98;;;;;;;;;;5028954;28;20033;-54
2022/06/15 13:36:43;;;;;;;5.78;1.05;;;;;;;;;;5033551;28;20018;-54
2022/06/15 13:39:24;;;;;;;3.78;0.70;;;;;;;;;;5027382;28;20037;-53
2022/06/15 13:42:10;;;;;;;2.13;0.60;;;;;;;;;;5029445;28;20416;-53
2022/06/15 13:44:52;;;;;;;3.28;0.90;;;;;;;;;;5031179;28;20033;-54
2022/06/15 13:47:19;;;;;;;2.72;0.50;;;;;;;;;;5034608;28;20059;-52
2022/06/15 13:49:45;;;;;;;1.90;0.73;;;;;;;;;;5025945;28;20112;-53
2022/06/15 13:52:14;;;;;;;2.97;0.45;;;;;;;;;;5032219;28;20033;-53
2022/06/15 13:54:55;;;;;;;3.22;0.73;;;;;;;;;;5030825;28;20516;-53
2022/06/15 13:57:30;;;;;;;0.85;0.35;;;;;;;;;;5027495;28;20026;-54
2022/06/15 14:00:19;;;;;;;2.75;0.60;;;;;;;;;;5031743;28;20556;-53
2022/06/15 14:03:06;;;;;;;3.25;0.60;;;;;;;;;;5030371;28;20036;-54
2022/06/15 14:05:46;;;;;;;1.70;0.63;;;;;;;;;;5032641;28;20033;-54
2022/06/15 14:08:24;;;;;;;2.13;0.52;;;;;;;;;;5031596;28;20026;-55
2022/06/15 14:11:02;;;;;;;1.70;0.50;;;;;;;;;;5029079;28;20679;-54
2022/06/15 14:13:36;;;;;;;3.30;0.47;;;;;;;;;;5030428;28;20037;-52
2022/06/15 14:16:07;;;;;;;3.78;0.63;;;;;;;;;;5030567;28;20040;-52
2022/06/15 14:18:44;;;;;;;2.90;0.50;;;;;;;;;;5027315;28;20072;-54
2022/06/15 14:21:12;;;;;;;3.45;0.50;;;;;;;;;;5032192;28;20044;-54
2022/06/15 14:23:38;;;;;;;3.30;0.70;;;;;;;;;;5033434;28;20028;-55
2022/06/15 14:26:05;;;;;;;2.70;0.50;;;;;;;;;;5025988;28;20025;-53
2022/06/15 14:28:32;;;;;;;6.10;0.85;;;;;;;;;;5023116;28;20084;-54
2022/06/15 14:31:03;;;;;;;4.72;0.63;;;;;;;;;;5036337;28;20037;-52
2022/06/15 14:33:30;;;;;;;4.27;0.80;;;;;;;;;;5030042;28;20112;-54
2022/06/15 14:36:00;;;;;;;4.15;0.73;;;;;;;;;;5031643;28;20033;-53
2022/06/15 14:38:29;;;;;;;1.75;0.40;;;;;;;;;;5027372;28;20064;-52
2022/06/15 14:41:08;;;;;;;3.47;0.88;;;;;;;;;;5028700;28;20030;-55
2022/06/15 14:43:37;;;;;;;2.55;0.70;;;;;;;;;;5033408;28;20037;-53
2022/06/15 14:46:03;;;;;;;6.20;0.68;;;;;;;;;;5030066;28;20064;-54
2022/06/15 14:48:33;;;;;;;1.70;0.60;;;;;;;;;;5022404;28;20072;-52
2022/06/15 14:51:06;;;;;;;4.38;0.80;;;;;;;;;;5021729;28;20045;-53
2022/06/15 14:53:32;;;;;;;1.92;0.60;;;;;;;;;;5020451;28;20048;-54
2022/06/15 14:56:03;;;;;;;1.20;0.57;;;;;;;;;;5028801;28;20057;-50
2022/06/15 14:58:29;;;;;;;4.15;1.13;;;;;;;;;;5036910;28;20068;-51
2022/06/15 15:01:06;;;;;;;2.55;0.70;;;;;;;;;;5028936;28;20036;-52
2022/06/15 15:03:33;;;;;;;4.03;0.80;;;;;;;;;;5024184;28;20057;-56
2022/06/15 15:06:19;;;;;;;4.00;0.85;;;;;;;;;;5028204;28;20025;-55
2022/06/15 15:08:47;;;;;;;3.30;0.68;;;;;;;;;;5022729;28;20484;-56
2022/06/15 15:11:31;;;;;;;2.90;0.85;;;;;;;;;;5026859;28;20481;-56
2022/06/15 15:14:02;;;;;;;5.20;0.82;;;;;;;;;;5026228;28;20025;-57
2022/06/15 15:16:30;;;;;;;4.45;1.10;;;;;;;;;;5029307;28;20056;-56
2022/06/15 15:19:04;;;;;;;3.75;0.60;;;;;;;;;;5029915;28;20033;-55
2022/06/15 15:21:32;;;;;;;1.67;0.75;;;;;;;;;;5029399;28;20076;-56
2022/06/15 15:24:00;;;;;;;4.95;1.00;;;;;;;;;;5029977;28;20067;-56